createdAt,value
2022-08-05T00:04:57.535Z,17.72
2022-08-05T00:10:00.283Z,17.74
2022-08-05T00:15:54.261Z,17.72
2022-08-05T00:20:28.933Z,17.70
2022-08-05T00:25:45.324Z,17.62
2022-08-05T00:30:52.070Z,17.41
2022-08-05T00:36:16.008Z,17.24
2022-08-05T00:41:51.675Z,17.15
2022-08-05T00:47:02.129Z,17.17
2022-08-05T00:52:08.207Z,17.15
2022-08-05T00:57:10.612Z,17.12
2022-08-05T01:02:13.299Z,17.05
2022-08-05T01:07:19.997Z,17.00
2022-08-05T01:12:25.278Z,16.98
2022-08-05T01:17:44.001Z,16.95
2022-08-05T01:23:13.571Z,16.92
2022-08-05T01:28:32.399Z,16.90
2022-08-05T01:33:48.914Z,16.88
2022-08-05T01:39:00.404Z,16.89
2022-08-05T01:44:06.623Z,16.87
2022-08-05T01:49:22.816Z,16.82
2022-08-05T01:54:52.821Z,16.75
2022-08-05T02:00:00.005Z,16.70
2022-08-05T02:05:11.755Z,16.66
2022-08-05T02:10:17.506Z,16.58
2022-08-05T02:15:31.194Z,16.51
2022-08-05T02:20:51.318Z,16.40
2022-08-05T02:25:57.839Z,16.30
2022-08-05T02:31:14.642Z,16.22
2022-08-05T02:36:23.215Z,16.20
2022-08-05T02:41:43.172Z,16.22
2022-08-05T02:47:00.983Z,16.19
2022-08-05T02:52:09.053Z,16.08
2022-08-05T02:58:20.175Z,16.02
2022-08-05T03:02:44.018Z,15.93
2022-08-05T03:08:01.056Z,15.87
2022-08-05T03:13:18.360Z,15.83
2022-08-05T03:18:24.642Z,15.76
2022-08-05T03:23:35.205Z,15.76
2022-08-05T03:28:41.916Z,15.77
2022-08-05T03:33:49.288Z,15.75
2022-08-05T03:38:54.820Z,15.74
2022-08-05T03:44:08.731Z,15.71
2022-08-05T03:49:15.016Z,15.78
2022-08-05T03:55:51.688Z,15.91
2022-08-05T04:00:04.654Z,15.95
2022-08-05T04:05:10.391Z,16.15
2022-08-05T04:10:13.318Z,16.34
2022-08-05T04:15:20.332Z,16.74
2022-08-05T04:20:28.609Z,18.01
2022-08-05T04:25:57.899Z,19.07
2022-08-05T04:30:54.819Z,19.81
2022-08-05T04:36:16.596Z,19.94
2022-08-05T04:41:19.338Z,20.52
2022-08-05T04:46:27.783Z,20.76
2022-08-05T04:51:32.772Z,20.89
2022-08-05T04:56:37.359Z,20.73
2022-08-05T05:02:07.155Z,20.38
2022-08-05T05:07:03.461Z,20.16
2022-08-05T05:12:06.426Z,20.02
2022-08-05T05:17:10.880Z,19.89
2022-08-05T05:22:24.597Z,20.10
2022-08-05T05:27:41.311Z,22.88
2022-08-05T05:32:46.226Z,24.72
2022-08-05T05:37:59.899Z,27.87
2022-08-05T05:43:08.689Z,30.86
2022-08-05T05:48:12.012Z,32.81
2022-08-05T05:53:22.741Z,33.55
2022-08-05T05:58:31.856Z,32.17
2022-08-05T06:03:53.853Z,32.12
2022-08-05T06:09:00.760Z,32.59
2022-08-05T06:14:04.340Z,31.53
2022-08-05T06:19:08.203Z,29.98
2022-08-05T06:24:12.697Z,28.87
2022-08-05T06:29:25.503Z,28.24
2022-08-05T06:34:43.280Z,27.44
2022-08-05T06:39:50.964Z,26.92
2022-08-05T06:44:53.785Z,26.57
2022-08-05T06:50:00.211Z,26.11
2022-08-05T06:55:06.721Z,25.95
2022-08-05T07:00:10.457Z,26.30
2022-08-05T07:05:19.558Z,27.27
2022-08-05T07:10:32.499Z,29.14
2022-08-05T07:16:01.566Z,31.01
2022-08-05T07:21:09.074Z,32.23
2022-08-05T07:26:13.385Z,32.76
2022-08-05T07:31:19.395Z,33.09
2022-08-05T07:36:43.647Z,33.12
2022-08-05T07:42:09.441Z,32.83
2022-08-05T07:47:11.798Z,32.93
2022-08-05T07:52:21.898Z,33.35
2022-08-05T07:57:58.858Z,32.90
2022-08-05T08:03:13.578Z,32.45
2022-08-05T08:08:19.880Z,32.57
2022-08-05T08:13:29.407Z,32.55
2022-08-05T08:18:32.753Z,32.55
2022-08-05T08:24:01.883Z,32.48
2022-08-05T08:29:09.763Z,32.31
2022-08-05T08:34:30.304Z,32.23
2022-08-05T08:39:37.173Z,32.23
2022-08-05T08:45:18.096Z,32.14
2022-08-05T08:50:30.381Z,32.00
2022-08-05T08:56:04.250Z,32.22
2022-08-05T09:00:58.771Z,32.37
2022-08-05T09:06:08.416Z,32.38
2022-08-05T09:11:15.631Z,32.40
2022-08-05T09:16:21.858Z,32.43
2022-08-05T09:22:23.367Z,32.58
2022-08-05T09:26:58.782Z,32.58
2022-08-05T09:32:46.159Z,32.44
2022-08-05T09:38:17.763Z,32.10
2022-08-05T09:42:54.387Z,32.24
2022-08-05T09:47:58.002Z,32.19
2022-08-05T09:53:02.195Z,32.28
2022-08-05T09:58:14.367Z,32.39
2022-08-05T10:03:18.153Z,32.41
2022-08-05T10:08:37.571Z,32.24
2022-08-05T10:13:45.676Z,32.22
2022-08-05T10:18:51.454Z,32.21
2022-08-05T10:23:59.489Z,32.28
2022-08-05T10:29:03.458Z,32.49
2022-08-05T10:34:08.213Z,32.60
2022-08-05T10:39:24.595Z,32.56
2022-08-05T10:44:45.030Z,32.62
2022-08-05T10:50:31.692Z,32.59
2022-08-05T10:56:03.700Z,32.67
2022-08-05T11:01:03.216Z,32.63
2022-08-05T11:06:15.974Z,32.78
2022-08-05T11:11:51.987Z,32.71
2022-08-05T11:17:53.339Z,32.89
2022-08-05T11:22:53.654Z,32.92
2022-08-05T11:28:17.708Z,32.85
2022-08-05T11:33:45.951Z,32.72
2022-08-05T11:38:51.768Z,32.82
2022-08-05T11:44:21.504Z,32.94
2022-08-05T11:49:42.992Z,32.88
2022-08-05T11:54:54.919Z,32.76
2022-08-05T11:59:58.186Z,32.66
2022-08-05T12:05:07.344Z,32.46
2022-08-05T12:10:22.960Z,32.58
2022-08-05T12:15:38.338Z,32.84
2022-08-05T12:20:42.818Z,33.01
2022-08-05T12:25:56.678Z,33.11
2022-08-05T12:31:02.467Z,33.06
2022-08-05T12:36:08.558Z,33.05
2022-08-05T12:41:21.240Z,33.13
2022-08-05T12:46:38.269Z,33.20
2022-08-05T12:52:13.650Z,33.28
2022-08-05T12:57:19.063Z,33.17
2022-08-05T13:02:30.367Z,33.07
2022-08-05T13:07:57.171Z,33.06
2022-08-05T13:12:58.524Z,32.85
2022-08-05T13:18:02.791Z,32.77
2022-08-05T13:23:07.247Z,32.85
2022-08-05T13:28:10.618Z,32.93
2022-08-05T13:34:21.665Z,33.04
2022-08-05T13:38:42.272Z,33.16
2022-08-05T13:43:54.726Z,33.08
2022-08-05T13:49:00.568Z,33.14
2022-08-05T13:54:12.808Z,33.25
2022-08-05T13:59:19.977Z,33.30
2022-08-05T14:04:43.302Z,33.23
2022-08-05T14:09:53.723Z,33.22
2022-08-05T14:14:56.693Z,32.97
2022-08-05T14:20:06.795Z,32.94
2022-08-05T14:25:19.220Z,33.06
2022-08-05T14:30:26.603Z,33.11
2022-08-05T14:35:36.232Z,32.91
2022-08-05T14:40:51.878Z,32.84
2022-08-05T14:45:54.641Z,32.89
2022-08-05T14:50:57.994Z,32.88
2022-08-05T14:56:00.328Z,32.80
2022-08-05T15:01:02.699Z,32.65
2022-08-05T15:06:12.796Z,32.69
2022-08-05T15:11:17.539Z,32.71
2022-08-05T15:16:20.362Z,32.62
2022-08-05T15:21:27.911Z,32.62
2022-08-05T15:26:34.915Z,32.61
2022-08-05T15:31:37.965Z,32.50
2022-08-05T15:36:40.368Z,32.45
2022-08-05T15:41:56.034Z,32.47
2022-08-05T15:47:01.685Z,32.46
2022-08-05T15:52:13.117Z,32.32
2022-08-05T15:57:26.560Z,32.22
2022-08-05T16:02:36.492Z,32.02
2022-08-05T16:07:38.590Z,31.94
2022-08-05T16:12:49.120Z,31.87
2022-08-05T16:18:12.582Z,31.87
2022-08-05T16:23:17.027Z,31.81
2022-08-05T16:28:19.294Z,31.75
2022-08-05T16:33:21.644Z,31.63
2022-08-05T16:38:25.638Z,31.47
2022-08-05T16:43:32.020Z,31.30
2022-08-05T16:48:35.248Z,31.16
2022-08-05T16:59:08.027Z,30.91
2022-08-05T17:04:15.100Z,30.69
2022-08-05T17:09:20.254Z,30.50
2022-08-05T17:14:37.650Z,30.27
2022-08-05T17:19:45.678Z,30.04
2022-08-05T17:24:57.981Z,29.79
2022-08-05T17:30:19.062Z,29.53
2022-08-05T17:36:08.841Z,29.24
2022-08-05T17:41:04.748Z,28.92
2022-08-05T17:46:17.590Z,28.64
2022-08-05T17:51:22.285Z,28.37
2022-08-05T17:56:28.244Z,28.09
2022-08-05T18:01:47.246Z,27.82
2022-08-05T18:06:54.403Z,27.52
2022-08-05T18:12:05.154Z,27.25
2022-08-05T18:18:01.167Z,26.99
2022-08-05T18:22:36.387Z,26.72
2022-08-05T18:27:55.293Z,26.45
2022-08-05T18:33:01.670Z,26.22
2022-08-05T18:38:05.180Z,26.02
2022-08-05T18:43:09.181Z,25.82
2022-08-05T18:48:30.906Z,25.62
2022-08-05T18:53:42.984Z,25.33
2022-08-05T18:58:54.936Z,25.13
2022-08-05T19:04:05.657Z,24.97
2022-08-05T19:09:39.126Z,24.75
2022-08-05T19:15:00.697Z,24.57
2022-08-05T19:20:11.316Z,24.42
2022-08-05T19:25:21.703Z,24.30
2022-08-05T19:30:34.154Z,24.07
2022-08-05T19:35:56.132Z,23.87
2022-08-05T19:41:02.140Z,23.76
2022-08-05T19:46:29.017Z,23.70
2022-08-05T19:52:09.128Z,23.62
2022-08-05T19:57:02.334Z,23.58
2022-08-05T20:02:09.745Z,23.56
2022-08-05T20:07:15.429Z,23.56
2022-08-05T20:12:20.661Z,23.57
2022-08-05T20:17:26.810Z,23.56
2022-08-05T20:22:31.588Z,23.54
2022-08-05T20:27:41.808Z,23.48
2022-08-05T20:32:47.150Z,23.43
2022-08-05T20:38:07.731Z,23.36
2022-08-05T20:43:12.825Z,23.30
2022-08-05T20:48:17.597Z,23.25
2022-08-05T20:53:37.249Z,23.18
2022-08-05T20:58:45.927Z,23.13
2022-08-05T21:03:51.011Z,23.04
2022-08-05T21:08:55.623Z,22.99
2022-08-05T21:14:01.339Z,22.95
2022-08-05T21:19:06.697Z,22.85
2022-08-05T21:24:15.414Z,22.73
2022-08-05T21:29:20.588Z,22.64
2022-08-05T21:34:31.759Z,22.57
2022-08-05T21:39:40.654Z,22.57
2022-08-05T21:44:47.459Z,22.68
2022-08-05T21:50:01.315Z,22.79
2022-08-05T21:55:07.914Z,22.82
2022-08-05T22:00:13.846Z,22.87
2022-08-05T22:05:18.385Z,22.90
2022-08-05T22:10:31.460Z,22.89
2022-08-05T22:16:00.956Z,22.90
2022-08-05T22:21:04.004Z,22.91
2022-08-05T22:26:27.527Z,22.90
2022-08-05T22:31:44.366Z,22.90
2022-08-05T22:36:50.967Z,22.87
2022-08-05T22:42:10.800Z,22.85
2022-08-05T22:47:29.933Z,22.83
2022-08-05T22:52:35.555Z,22.77
2022-08-05T22:57:42.101Z,22.70
2022-08-05T23:02:54.149Z,22.60
2022-08-05T23:07:58.949Z,22.51
2022-08-05T23:13:03.381Z,22.41
2022-08-05T23:18:15.790Z,22.33
2022-08-05T23:23:20.069Z,22.27
2022-08-05T23:28:29.156Z,22.16
2022-08-05T23:34:05.689Z,22.10
2022-08-05T23:38:58.445Z,22.08
2022-08-05T23:44:06.240Z,22.05
2022-08-05T23:49:16.993Z,21.97
2022-08-05T23:54:36.586Z,21.93
